createdAt,value
2022-09-04T00:00:10.154Z,3.00
2022-09-04T00:03:10.719Z,2.92
2022-09-04T00:05:49.173Z,2.90
2022-09-04T00:08:35.139Z,3.35
2022-09-04T00:11:15.125Z,3.22
2022-09-04T00:13:54.080Z,3.00
2022-09-04T00:16:27.162Z,3.13
2022-09-04T00:19:04.043Z,3.10
2022-09-04T00:21:41.424Z,2.90
2022-09-04T00:24:16.682Z,3.25
2022-09-04T00:26:54.539Z,3.05
2022-09-04T00:29:36.510Z,3.58
2022-09-04T00:32:15.522Z,2.78
2022-09-04T00:34:57.848Z,2.83
2022-09-04T00:37:31.862Z,2.78
2022-09-04T00:40:05.689Z,2.92
2022-09-04T00:42:56.299Z,2.90
2022-09-04T00:45:42.582Z,3.05
2022-09-04T00:48:23.634Z,3.13
2022-09-04T00:51:16.168Z,3.38
2022-09-04T00:54:11.931Z,2.97
2022-09-04T00:57:27.535Z,2.70
2022-09-04T01:00:08.506Z,2.78
2022-09-04T01:02:58.803Z,3.60
2022-09-04T01:05:40.702Z,3.00
2022-09-04T01:08:20.773Z,3.38
2022-09-04T01:11:00.964Z,3.67
2022-09-04T01:13:36.413Z,3.90
2022-09-04T01:16:10.665Z,3.75
2022-09-04T01:18:49.410Z,3.70
2022-09-04T01:21:51.719Z,4.13
2022-09-04T01:24:40.231Z,3.67
2022-09-04T01:27:21.661Z,3.80
2022-09-04T01:30:00.484Z,4.03
2022-09-04T01:32:40.893Z,4.32
2022-09-04T01:35:21.078Z,4.07
2022-09-04T01:37:59.047Z,4.40
2022-09-04T01:40:47.731Z,4.10
2022-09-04T01:43:21.371Z,4.63
2022-09-04T01:46:24.962Z,4.40
2022-09-04T01:48:59.736Z,4.35
2022-09-04T01:51:34.626Z,4.03
2022-09-04T01:54:19.148Z,4.28
2022-09-04T01:57:03.215Z,3.92
2022-09-04T01:59:45.553Z,3.90
2022-09-04T02:02:22.224Z,3.80
2022-09-04T02:05:03.955Z,4.80
2022-09-04T02:07:45.299Z,3.53
2022-09-04T02:10:25.775Z,3.83
2022-09-04T02:13:03.300Z,3.10
2022-09-04T02:15:44.989Z,3.90
2022-09-04T02:18:26.415Z,4.28
2022-09-04T02:21:03.981Z,3.60
2022-09-04T02:23:40.403Z,3.88
2022-09-04T02:26:15.560Z,3.75
2022-09-04T02:28:55.493Z,3.85
2022-09-04T02:31:39.068Z,3.55
2022-09-04T02:34:11.551Z,3.70
2022-09-04T02:36:50.139Z,3.35
2022-09-04T02:39:35.951Z,3.20
2022-09-04T02:42:15.157Z,3.30
2022-09-04T02:44:54.628Z,3.35
2022-09-04T02:47:33.993Z,4.10
2022-09-04T02:50:13.161Z,3.10
2022-09-04T02:53:02.119Z,3.80
2022-09-04T02:55:47.090Z,3.55
2022-09-04T02:58:26.148Z,4.10
2022-09-04T03:01:04.418Z,3.15
2022-09-04T03:03:44.726Z,4.03
2022-09-04T03:06:22.952Z,3.47
2022-09-04T03:08:59.591Z,4.00
2022-09-04T03:11:36.317Z,3.88
2022-09-04T03:14:12.302Z,3.53
2022-09-04T03:16:48.408Z,4.15
2022-09-04T03:19:22.888Z,4.30
2022-09-04T03:21:58.377Z,3.75
2022-09-04T03:24:34.958Z,3.88
2022-09-04T03:27:08.228Z,3.67
2022-09-04T03:29:46.307Z,3.50
2022-09-04T03:32:21.825Z,5.00
2022-09-04T03:34:58.671Z,3.33
2022-09-04T03:37:42.253Z,3.45
2022-09-04T03:40:35.847Z,3.83
2022-09-04T03:43:40.133Z,4.25
2022-09-04T03:46:23.526Z,2.85
2022-09-04T03:49:03.635Z,3.58
2022-09-04T03:51:45.120Z,3.38
2022-09-04T03:57:13.604Z,3.90
2022-09-04T03:59:59.454Z,3.30
2022-09-04T04:02:40.924Z,3.10
2022-09-04T04:05:28.317Z,3.45
2022-09-04T04:08:13.884Z,3.25
2022-09-04T04:10:57.176Z,3.53
2022-09-04T04:13:54.279Z,3.80
2022-09-04T04:16:40.928Z,3.50
2022-09-04T04:19:38.469Z,4.10
2022-09-04T04:22:21.110Z,3.35
2022-09-04T04:25:13.519Z,3.75
2022-09-04T04:27:55.634Z,3.28
2022-09-04T04:30:26.758Z,3.05
2022-09-04T04:33:17.018Z,3.10
2022-09-04T04:35:58.589Z,3.38
2022-09-04T04:38:39.411Z,3.25
2022-09-04T04:41:23.598Z,2.90
2022-09-04T04:44:13.297Z,3.20
2022-09-04T04:46:54.731Z,3.08
2022-09-04T04:49:43.352Z,3.90
2022-09-04T04:52:31.631Z,3.47
2022-09-04T04:55:17.520Z,3.85
2022-09-04T04:58:02.722Z,3.13
2022-09-04T05:00:40.344Z,3.97
2022-09-04T05:03:19.337Z,3.95
2022-09-04T05:05:58.323Z,3.58
2022-09-04T05:08:38.477Z,3.40
2022-09-04T05:11:18.770Z,3.47
2022-09-04T05:14:05.390Z,3.22
2022-09-04T05:16:52.241Z,3.33
2022-09-04T05:19:30.962Z,3.65
2022-09-04T05:22:11.019Z,2.97
2022-09-04T05:24:55.771Z,2.63
2022-09-04T05:27:53.452Z,3.40
2022-09-04T05:30:35.390Z,3.38
2022-09-04T05:33:17.292Z,3.25
2022-09-04T05:35:53.000Z,2.53
2022-09-04T05:38:30.394Z,2.80
2022-09-04T05:41:07.159Z,2.58
2022-09-04T05:43:53.916Z,2.90
2022-09-04T05:46:44.412Z,3.22
2022-09-04T05:49:24.021Z,2.97
2022-09-04T05:52:27.134Z,1.30
2022-09-04T05:55:32.351Z,1.25
2022-09-04T05:58:18.332Z,1.10
2022-09-04T06:01:00.460Z,1.30
2022-09-04T06:03:59.549Z,1.00
2022-09-04T06:06:38.974Z,1.13
2022-09-04T06:09:39.293Z,1.65
2022-09-04T06:12:35.548Z,1.50
2022-09-04T06:15:19.516Z,1.42
2022-09-04T06:18:14.612Z,0.90
2022-09-04T06:21:00.717Z,1.40
2022-09-04T06:23:52.245Z,1.10
2022-09-04T06:26:40.733Z,1.38
2022-09-04T06:29:27.236Z,1.17
2022-09-04T06:32:18.689Z,0.95
2022-09-04T06:35:11.118Z,1.10
2022-09-04T06:37:59.157Z,1.00
2022-09-04T06:40:39.904Z,1.30
2022-09-04T06:43:21.082Z,1.30
2022-09-04T06:48:45.035Z,1.10
2022-09-04T06:51:32.699Z,1.27
2022-09-04T06:54:52.935Z,1.25
2022-09-04T06:57:43.206Z,1.10
2022-09-04T07:00:14.608Z,0.80
2022-09-04T07:03:19.854Z,1.00
2022-09-04T07:05:55.532Z,1.02
2022-09-04T07:08:37.819Z,0.90
2022-09-04T07:11:20.701Z,1.15
2022-09-04T07:14:30.626Z,0.82
2022-09-04T07:17:11.939Z,1.30
2022-09-04T07:20:18.209Z,1.25
2022-09-04T07:23:10.353Z,1.20
2022-09-04T07:25:49.861Z,1.30
2022-09-04T07:28:33.614Z,1.27
2022-09-04T07:31:12.594Z,1.00
2022-09-04T07:33:49.875Z,0.90
2022-09-04T07:36:29.849Z,0.82
2022-09-04T07:39:12.696Z,0.90
2022-09-04T07:41:51.142Z,1.58
2022-09-04T07:44:30.460Z,1.00
2022-09-04T07:47:13.729Z,1.00
2022-09-04T07:49:54.304Z,0.85
2022-09-04T07:52:41.403Z,0.75
2022-09-04T07:55:23.874Z,0.90
2022-09-04T07:58:21.189Z,0.73
2022-09-04T08:01:10.752Z,0.70
2022-09-04T08:03:57.775Z,0.73
2022-09-04T08:09:13.412Z,0.90
2022-09-04T08:11:58.480Z,1.23
2022-09-04T08:14:47.021Z,0.70
2022-09-04T08:17:45.436Z,0.90
2022-09-04T08:20:34.174Z,0.90
2022-09-04T08:23:24.952Z,0.80
2022-09-04T08:26:04.323Z,1.00
2022-09-04T08:28:49.648Z,0.93
2022-09-04T08:31:29.341Z,0.85
2022-09-04T08:34:28.012Z,0.90
2022-09-04T08:37:12.056Z,0.88
2022-09-04T08:39:55.782Z,0.80
2022-09-04T08:43:04.253Z,0.77
2022-09-04T08:46:09.740Z,0.90
2022-09-04T08:49:32.688Z,0.88
2022-09-04T08:52:44.256Z,0.80
2022-09-04T08:55:47.366Z,0.80
2022-09-04T08:58:57.305Z,0.82
2022-09-04T09:02:05.781Z,0.70
2022-09-04T09:05:09.362Z,0.88
2022-09-04T09:08:23.375Z,0.70
2022-09-04T09:11:33.519Z,0.88
2022-09-04T09:14:45.483Z,0.90
2022-09-04T09:17:39.048Z,1.00
2022-09-04T09:20:27.978Z,0.93
2022-09-04T09:23:35.427Z,0.70
2022-09-04T09:26:27.339Z,0.90
2022-09-04T09:29:32.386Z,0.90
2022-09-04T09:32:53.076Z,0.98
2022-09-04T09:35:58.164Z,0.80
2022-09-04T09:39:01.285Z,0.90
2022-09-04T09:42:05.889Z,0.90
2022-09-04T09:45:15.123Z,1.05
2022-09-04T09:48:25.215Z,1.00
2022-09-04T09:52:00.221Z,0.90
2022-09-04T09:55:11.710Z,0.90
2022-09-04T09:58:31.936Z,1.00
2022-09-04T10:01:19.945Z,0.98
2022-09-04T10:04:37.877Z,1.00
2022-09-04T10:07:44.109Z,0.80
2022-09-04T10:10:49.800Z,0.82
2022-09-04T10:14:02.769Z,0.73
2022-09-04T10:17:16.296Z,0.80
2022-09-04T10:20:20.525Z,0.77
2022-09-04T10:23:33.097Z,0.65
2022-09-04T10:26:31.943Z,0.80
2022-09-04T10:29:36.577Z,0.80
2022-09-04T10:32:32.669Z,0.60
2022-09-04T10:35:25.551Z,0.60
2022-09-04T10:38:27.937Z,0.60
2022-09-04T10:41:24.246Z,0.80
2022-09-04T10:44:25.922Z,0.70
2022-09-04T10:50:07.053Z,0.90
2022-09-04T10:53:12.445Z,1.08
2022-09-04T10:56:00.638Z,1.10
2022-09-04T10:58:40.231Z,0.85
2022-09-04T11:01:45.426Z,1.10
2022-09-04T11:04:48.814Z,0.73
2022-09-04T11:07:44.017Z,1.15
2022-09-04T11:10:36.277Z,0.70
2022-09-04T11:14:10.134Z,1.17
2022-09-04T11:17:04.200Z,1.00
2022-09-04T11:20:18.588Z,0.88
2022-09-04T11:23:16.644Z,0.95
2022-09-04T11:26:23.739Z,0.82
2022-09-04T11:29:19.877Z,0.98
2022-09-04T11:32:16.426Z,0.80
2022-09-04T11:35:22.428Z,0.90
2022-09-04T11:38:07.573Z,1.08
2022-09-04T11:41:12.777Z,1.00
2022-09-04T11:44:25.492Z,1.23
2022-09-04T11:47:29.434Z,1.30
2022-09-04T11:50:16.734Z,1.10
2022-09-04T11:53:35.899Z,1.35
2022-09-04T11:56:33.346Z,1.30
2022-09-04T11:59:27.945Z,1.05
2022-09-04T12:02:27.861Z,1.40
2022-09-04T12:05:25.433Z,0.77
2022-09-04T12:08:17.577Z,1.10
2022-09-04T12:11:19.817Z,1.40
2022-09-04T12:14:15.658Z,1.42
2022-09-04T12:17:08.610Z,1.10
2022-09-04T12:20:07.980Z,1.00
2022-09-04T12:23:21.529Z,1.20
2022-09-04T12:26:51.639Z,1.45
2022-09-04T12:29:53.012Z,1.13
2022-09-04T12:32:57.935Z,0.90
2022-09-04T12:36:14.673Z,0.98
2022-09-04T12:39:16.321Z,1.00
2022-09-04T12:42:03.508Z,1.08
2022-09-04T12:44:43.731Z,1.23
2022-09-04T12:47:33.396Z,1.00
2022-09-04T12:50:28.521Z,0.82
2022-09-04T12:53:14.186Z,1.00
2022-09-04T12:55:50.042Z,1.10
2022-09-04T12:58:36.448Z,1.10
2022-09-04T13:01:16.986Z,1.02
2022-09-04T13:03:59.021Z,0.85
2022-09-04T13:06:48.238Z,1.15
2022-09-04T13:09:27.376Z,1.00
2022-09-04T13:12:09.255Z,0.90
2022-09-04T13:15:07.962Z,1.00
2022-09-04T13:17:49.311Z,0.93
2022-09-04T13:20:31.107Z,0.80
2022-09-04T13:25:53.190Z,0.80
2022-09-04T13:28:40.932Z,1.00
2022-09-04T13:31:43.530Z,0.80
2022-09-04T13:34:26.431Z,1.00
2022-09-04T13:37:05.365Z,0.73
2022-09-04T13:40:03.031Z,1.00
2022-09-04T13:43:09.974Z,1.17
2022-09-04T13:45:47.946Z,1.10
2022-09-04T13:48:34.198Z,0.80
2022-09-04T13:51:13.593Z,0.75
2022-09-04T13:53:56.392Z,1.02
2022-09-04T13:56:35.601Z,0.90
2022-09-04T13:59:10.625Z,0.98
2022-09-04T14:01:48.007Z,1.15
2022-09-04T14:04:26.779Z,1.00
2022-09-04T14:07:06.404Z,1.20
2022-09-04T14:09:41.392Z,1.20
2022-09-04T14:12:46.365Z,1.27
2022-09-04T14:15:36.473Z,0.95
2022-09-04T14:18:28.379Z,0.82
2022-09-04T14:21:03.427Z,1.08
2022-09-04T14:23:47.548Z,1.20
2022-09-04T14:26:25.968Z,1.10
2022-09-04T14:29:06.510Z,1.23
2022-09-04T14:31:47.018Z,0.80
2022-09-04T14:34:36.389Z,1.00
2022-09-04T14:37:16.291Z,0.90
2022-09-04T14:39:56.206Z,0.73
2022-09-04T14:42:47.051Z,0.73
2022-09-04T14:45:50.546Z,1.23
2022-09-04T14:48:24.551Z,1.17
2022-09-04T14:51:00.203Z,0.85
2022-09-04T14:53:34.681Z,0.95
2022-09-04T14:56:24.496Z,1.35
2022-09-04T14:59:02.416Z,1.13
2022-09-04T15:01:38.707Z,0.85
2022-09-04T15:04:14.928Z,0.70
2022-09-04T15:07:10.728Z,0.98
2022-09-04T15:09:48.230Z,0.90
2022-09-04T15:12:24.998Z,1.05
2022-09-04T15:15:01.249Z,0.93
2022-09-04T15:17:40.986Z,0.90
2022-09-04T15:20:22.749Z,0.90
2022-09-04T15:22:59.790Z,1.60
2022-09-04T15:26:02.460Z,1.10
2022-09-04T15:28:40.322Z,1.17
2022-09-04T15:31:16.584Z,1.08
2022-09-04T15:33:49.974Z,1.17
2022-09-04T15:36:25.066Z,1.25
2022-09-04T15:39:15.788Z,1.55
2022-09-04T15:41:52.103Z,1.48
2022-09-04T15:44:30.311Z,1.30
2022-09-04T15:47:07.780Z,1.33
2022-09-04T15:49:55.720Z,2.00
2022-09-04T15:52:37.143Z,1.33
2022-09-04T15:55:20.289Z,1.30
2022-09-04T15:58:11.750Z,1.08
2022-09-04T16:01:08.405Z,1.00
2022-09-04T16:04:01.617Z,1.00
2022-09-04T16:06:38.545Z,0.93
2022-09-04T16:09:19.009Z,1.00
2022-09-04T16:11:56.265Z,1.10
2022-09-04T16:14:32.777Z,0.95
2022-09-04T16:17:09.357Z,1.08
2022-09-04T16:19:47.291Z,0.90
2022-09-04T16:22:35.204Z,1.10
2022-09-04T16:25:11.913Z,1.45
2022-09-04T16:27:50.707Z,1.08
2022-09-04T16:30:33.792Z,0.90
2022-09-04T16:33:25.019Z,1.05
2022-09-04T16:36:00.595Z,1.00
2022-09-04T16:38:43.993Z,0.93
2022-09-04T16:41:19.515Z,0.80
2022-09-04T16:44:26.520Z,1.00
2022-09-04T16:47:16.699Z,0.80
2022-09-04T16:49:55.158Z,0.90
2022-09-04T16:52:39.348Z,0.88
2022-09-04T16:55:20.688Z,0.70
2022-09-04T16:58:07.916Z,0.65
2022-09-04T17:01:14.281Z,0.90
2022-09-04T17:04:12.726Z,0.95
2022-09-04T17:07:01.200Z,0.80
2022-09-04T17:09:47.009Z,0.90
2022-09-04T17:12:33.442Z,0.95
2022-09-04T17:15:16.625Z,0.95
2022-09-04T17:18:01.412Z,1.05
2022-09-04T17:22:48.579Z,0.90
2022-09-04T17:29:03.251Z,0.98
2022-09-04T17:29:09.207Z,1.25
2022-09-04T17:29:43.034Z,1.02
2022-09-04T17:32:35.489Z,1.42
2022-09-04T17:40:36.663Z,1.30
2022-09-04T17:40:47.769Z,1.23
2022-09-04T17:41:32.487Z,1.40
2022-09-04T17:47:15.908Z,1.27
2022-09-04T17:49:51.029Z,1.52
2022-09-04T17:52:27.147Z,1.60
2022-09-04T17:55:08.171Z,1.33
2022-09-04T17:57:53.046Z,1.70
2022-09-04T18:00:27.179Z,1.42
2022-09-04T18:03:06.115Z,1.30
2022-09-04T18:05:42.572Z,1.80
2022-09-04T18:08:32.882Z,1.30
2022-09-04T18:11:16.092Z,1.50
2022-09-04T18:14:00.979Z,1.10
2022-09-04T18:17:11.619Z,1.20
2022-09-04T18:20:13.119Z,1.38
2022-09-04T18:23:21.549Z,1.20
2022-09-04T18:25:57.862Z,1.38
2022-09-04T18:28:35.542Z,1.10
2022-09-04T18:36:19.167Z,1.30
2022-09-04T18:37:25.484Z,1.13
2022-09-04T18:37:43.973Z,1.48
2022-09-04T18:40:36.076Z,1.45
2022-09-04T18:49:14.179Z,1.60
2022-09-04T18:50:45.624Z,1.42
2022-09-04T18:50:53.243Z,1.38
2022-09-04T18:52:01.191Z,1.50
2022-09-04T18:54:41.864Z,1.55
2022-09-04T18:57:31.729Z,1.77
2022-09-04T19:00:09.466Z,1.55
2022-09-04T19:02:51.421Z,2.13
2022-09-04T19:05:32.923Z,1.40
2022-09-04T19:08:22.019Z,1.88
2022-09-04T19:10:56.355Z,1.77
2022-09-04T19:13:32.793Z,2.42
2022-09-04T19:16:08.167Z,1.77
2022-09-04T19:18:50.145Z,2.47
2022-09-04T19:21:33.837Z,3.92
2022-09-04T19:24:34.647Z,2.20
2022-09-04T19:27:26.659Z,2.85
2022-09-04T19:30:18.290Z,2.53
2022-09-04T19:33:12.900Z,2.97
2022-09-04T19:35:58.886Z,2.25
2022-09-04T19:45:47.548Z,2.28
2022-09-04T19:45:59.170Z,2.65
2022-09-04T19:46:16.321Z,2.40
2022-09-04T19:47:29.747Z,2.50
2022-09-04T19:53:18.303Z,2.25
2022-09-04T19:53:33.748Z,2.80
2022-09-04T19:56:12.555Z,2.10
2022-09-04T19:58:47.933Z,2.70
2022-09-04T20:01:25.099Z,2.55
2022-09-04T20:03:59.050Z,2.45
2022-09-04T20:06:33.305Z,2.65
2022-09-04T20:09:10.191Z,2.58
2022-09-04T20:11:46.572Z,2.72
2022-09-04T20:14:25.995Z,2.28
2022-09-04T20:17:13.163Z,2.67
2022-09-04T20:19:46.219Z,1.80
2022-09-04T20:22:35.330Z,1.98
2022-09-04T20:25:30.786Z,2.30
2022-09-04T20:28:23.991Z,2.13
2022-09-04T20:31:35.464Z,2.08
2022-09-04T20:34:19.734Z,2.47
2022-09-04T20:36:53.552Z,2.10
2022-09-04T20:39:28.658Z,2.95
2022-09-04T20:42:03.620Z,2.33
2022-09-04T20:45:32.219Z,2.13
2022-09-04T20:52:53.162Z,1.92
2022-09-04T20:53:04.504Z,1.80
2022-09-04T20:53:33.122Z,2.13
2022-09-04T20:56:21.952Z,1.98
2022-09-04T21:03:08.399Z,2.50
2022-09-04T21:03:19.970Z,2.13
2022-09-04T21:05:24.203Z,2.10
2022-09-04T21:08:03.740Z,1.73
2022-09-04T21:10:37.944Z,2.05
2022-09-04T21:13:14.730Z,2.25
2022-09-04T21:15:53.766Z,2.17
2022-09-04T21:19:12.986Z,2.50
2022-09-04T21:22:01.889Z,2.40
2022-09-04T21:25:03.817Z,2.60
2022-09-04T21:27:55.259Z,2.20
2022-09-04T21:30:44.574Z,2.08
2022-09-04T21:33:28.233Z,2.28
2022-09-04T21:36:25.829Z,1.83
2022-09-04T21:39:27.350Z,1.85
2022-09-04T21:42:29.384Z,1.75
2022-09-04T21:45:14.248Z,1.70
2022-09-04T21:48:23.781Z,2.15
2022-09-04T21:51:23.294Z,1.95
2022-09-04T21:59:22.343Z,1.92
2022-09-04T22:02:27.989Z,2.50
2022-09-04T22:02:44.439Z,1.98
2022-09-04T22:04:38.268Z,2.08
2022-09-04T22:10:19.570Z,1.77
2022-09-04T22:13:35.063Z,1.85
2022-09-04T22:13:50.235Z,1.73
2022-09-04T22:16:42.008Z,1.70
2022-09-04T22:19:47.847Z,1.73
2022-09-04T22:22:36.703Z,1.60
2022-09-04T22:25:41.319Z,1.60
2022-09-04T22:28:38.117Z,1.65
2022-09-04T22:31:53.946Z,1.80
2022-09-04T22:34:59.291Z,1.88
2022-09-04T22:38:02.542Z,1.98
2022-09-04T22:40:56.077Z,1.80
2022-09-04T22:43:29.352Z,2.03
2022-09-04T22:46:38.466Z,1.92
2022-09-04T22:49:26.255Z,1.98
2022-09-04T22:52:18.678Z,2.17
2022-09-04T22:55:09.195Z,1.83
2022-09-04T22:58:09.163Z,1.95
2022-09-04T23:00:57.174Z,1.80
2022-09-04T23:03:37.856Z,2.30
2022-09-04T23:12:12.176Z,2.17
2022-09-04T23:13:57.317Z,2.95
2022-09-04T23:14:02.410Z,2.72
2022-09-04T23:17:10.114Z,2.90
2022-09-04T23:26:32.227Z,3.28
2022-09-04T23:26:58.060Z,2.90
2022-09-04T23:26:59.556Z,3.42
2022-09-04T23:30:02.645Z,4.18
2022-09-04T23:32:57.192Z,4.43
2022-09-04T23:35:41.406Z,4.28
2022-09-04T23:38:34.102Z,5.22
2022-09-04T23:41:14.135Z,5.35
2022-09-04T23:44:28.128Z,4.85
2022-09-04T23:47:47.186Z,4.22
2022-09-04T23:50:29.481Z,4.30
2022-09-04T23:53:10.714Z,4.60
2022-09-04T23:55:57.111Z,3.65
2022-09-04T23:59:07.422Z,3.58
